Time;durP1;ratioP1;P1;durP2;ratioP2;P2;SDS_P1;SDS_P2;PMS_P1;PMS_P2;Temp;Humidity;BMP_temperature;BMP_pressure;BME280_temperature;BME280_humidity;BME280_pressure;Samples;Min_cycle;Max_cycle;Signal;HPM_P1;HPM_P2
2021/12/06 00:01:57;;;;;;;10.40;1.08;;;20.30;99.90;;;;;;5026504;28;20025;-66
2021/12/06 00:04:32;;;;;;;11.13;1.92;;;20.40;99.90;;;;;;5007084;28;20034;-67
2021/12/06 00:07:08;;;;;;;5.93;1.00;;;20.70;99.90;;;;;;5009342;28;20031;-67
2021/12/06 00:09:36;;;;;;;10.15;0.98;;;20.90;99.90;;;;;;5026043;28;20054;-67
2021/12/06 00:12:04;;;;;;;6.78;1.10;;;21.00;99.90;;;;;;5025959;28;20026;-67
2021/12/06 00:14:35;;;;;;;10.20;1.15;;;21.10;99.90;;;;;;5007153;28;20042;-67
2021/12/06 00:17:07;;;;;;;7.18;1.15;;;21.00;99.90;;;;;;5007446;28;20026;-67
2021/12/06 00:19:35;;;;;;;5.00;0.93;;;20.90;99.90;;;;;;5008633;28;20081;-68
2021/12/06 00:22:05;;;;;;;9.63;1.50;;;20.80;99.90;;;;;;5021861;28;20165;-67
2021/12/06 00:24:33;;;;;;;11.55;1.02;;;21.10;99.90;;;;;;5012378;28;20084;-67
2021/12/06 00:27:00;;;;;;;5.60;0.85;;;21.20;99.90;;;;;;5008774;28;20018;-67
2021/12/06 00:29:28;;;;;;;9.02;1.38;;;21.20;99.90;;;;;;5012532;28;20026;-67
2021/12/06 00:31:55;;;;;;;5.53;0.65;;;21.10;99.90;;;;;;5012463;28;20415;-67
2021/12/06 00:34:25;;;;;;;13.65;2.15;;;21.10;99.90;;;;;;5014334;28;20036;-67
2021/12/06 00:37:05;;;;;;;13.18;1.40;;;21.20;99.90;;;;;;5014142;28;20029;-67
2021/12/06 00:39:34;;;;;;;5.97;1.08;;;20.90;99.90;;;;;;5010217;28;20086;-67
2021/12/06 00:42:01;;;;;;;7.88;1.17;;;20.80;99.90;;;;;;5014774;28;20022;-67
2021/12/06 00:44:28;;;;;;;8.25;1.27;;;20.80;99.90;;;;;;5014218;28;20061;-67
2021/12/06 00:46:55;;;;;;;7.05;0.70;;;20.90;99.90;;;;;;5011895;28;20057;-67
2021/12/06 00:49:23;;;;;;;9.52;1.33;;;21.00;99.90;;;;;;5014375;28;20060;-68
2021/12/06 00:51:50;;;;;;;8.65;1.45;;;21.10;99.90;;;;;;5012385;28;20030;-67
2021/12/06 00:54:17;;;;;;;10.23;1.75;;;20.90;99.90;;;;;;5010848;28;20011;-67
2021/12/06 00:56:45;;;;;;;9.45;1.20;;;20.80;99.90;;;;;;5012832;28;20053;-68
2021/12/06 00:59:12;;;;;;;10.68;1.30;;;20.80;99.90;;;;;;5000153;28;20042;-68
2021/12/06 01:01:39;;;;;;;8.02;1.30;;;20.80;99.90;;;;;;4992407;28;20023;-67
2021/12/06 01:04:07;;;;;;;12.50;1.42;;;20.80;99.90;;;;;;5012604;28;20046;-67
2021/12/06 01:06:34;;;;;;;17.58;2.13;;;20.90;99.90;;;;;;5014966;28;20026;-67
2021/12/06 01:09:02;;;;;;;7.32;1.15;;;21.10;99.90;;;;;;4995843;28;20033;-67
2021/12/06 01:11:29;;;;;;;10.75;1.52;;;21.30;99.90;;;;;;4995971;28;20030;-67
2021/12/06 01:13:56;;;;;;;7.70;1.05;;;21.50;99.90;;;;;;5012037;28;20093;-67
2021/12/06 01:16:25;;;;;;;7.57;1.25;;;21.40;99.90;;;;;;5012925;28;20010;-68
2021/12/06 01:18:52;;;;;;;7.25;1.40;;;21.30;99.90;;;;;;5011457;28;20476;-68
2021/12/06 01:21:27;;;;;;;11.00;1.45;;;21.10;99.90;;;;;;5013152;28;20050;-67
2021/12/06 01:23:59;;;;;;;9.65;1.15;;;21.10;99.90;;;;;;5028649;28;20034;-67
2021/12/06 01:29:45;;;;;;;6.88;1.23;;;21.40;99.90;;;;;;5010857;28;20085;-67
2021/12/06 01:40:10;;;;;;;8.68;1.08;;;21.50;99.90;;;;;;5010145;28;20069;-67
2021/12/06 01:42:38;;;;;;;10.65;1.23;;;21.60;99.90;;;;;;5012540;28;20041;-68
2021/12/06 01:45:07;;;;;;;9.88;1.50;;;21.60;99.90;;;;;;5010687;28;20028;-68
2021/12/06 01:47:39;;;;;;;10.77;1.50;;;21.60;99.90;;;;;;5015108;28;20026;-68
2021/12/06 01:50:12;;;;;;;16.50;2.15;;;21.50;99.90;;;;;;5018606;28;20015;-68
2021/12/06 01:52:43;;;;;;;13.70;2.13;;;21.40;99.90;;;;;;5009737;28;20007;-68
2021/12/06 01:55:14;;;;;;;9.85;1.17;;;21.30;99.90;;;;;;5012591;28;20045;-66
2021/12/06 01:57:42;;;;;;;10.05;1.08;;;21.30;99.90;;;;;;5009926;28;20030;-67
2021/12/06 02:00:19;;;;;;;8.63;1.38;;;21.40;99.90;;;;;;5004678;28;20038;-68
2021/12/06 02:02:46;;;;;;;11.25;1.42;;;21.40;99.90;;;;;;5008261;28;20106;-67
2021/12/06 02:05:14;;;;;;;8.73;1.10;;;21.30;99.90;;;;;;5005284;28;20030;-68
2021/12/06 02:07:42;;;;;;;11.13;1.55;;;21.10;99.90;;;;;;5001979;28;20030;-68
2021/12/06 02:10:10;;;;;;;13.68;1.85;;;20.90;99.90;;;;;;5012950;28;20058;-68
2021/12/06 02:12:38;;;;;;;6.78;0.80;;;20.90;99.90;;;;;;5006165;28;20027;-67
2021/12/06 02:15:19;;;;;;;8.30;1.00;;;20.80;99.90;;;;;;5008169;28;20053;-67
2021/12/06 02:17:56;;;;;;;11.77;1.17;;;20.70;99.90;;;;;;5002432;28;20052;-69
2021/12/06 02:20:27;;;;;;;9.38;1.45;;;20.60;99.90;;;;;;4998053;28;20056;-69
2021/12/06 02:22:57;;;;;;;11.57;1.35;;;20.60;99.90;;;;;;4995295;28;20488;-68
2021/12/06 02:25:25;;;;;;;8.07;1.08;;;20.70;99.90;;;;;;5000116;28;20034;-68
2021/12/06 02:27:53;;;;;;;8.07;1.27;;;20.80;99.90;;;;;;5019734;28;20479;-68
2021/12/06 02:30:21;;;;;;;6.40;1.60;;;20.80;99.90;;;;;;5005458;28;20383;-68
2021/12/06 02:32:51;;;;;;;9.10;0.70;;;20.80;99.90;;;;;;5003423;28;20081;-68
2021/12/06 02:35:21;;;;;;;6.90;1.30;;;20.80;99.90;;;;;;5006314;28;20031;-68
2021/12/06 02:37:50;;;;;;;10.90;1.50;;;20.80;99.90;;;;;;5025079;28;20045;-68
2021/12/06 02:40:25;;;;;;;6.78;0.70;;;20.80;99.90;;;;;;5011898;28;20034;-68
2021/12/06 02:42:53;;;;;;;8.10;1.13;;;20.80;99.90;;;;;;5006444;28;20062;-68
2021/12/06 02:45:27;;;;;;;7.00;1.35;;;20.80;99.90;;;;;;5008276;28;20557;-68
2021/12/06 02:47:55;;;;;;;;;;;20.80;99.90;;;;;;5002349;28;20015;-68
2021/12/06 02:50:26;;;;;;;14.05;1.48;;;20.80;99.90;;;;;;5019955;28;20289;-68
2021/12/06 02:52:55;;;;;;;4.18;0.75;;;20.80;99.90;;;;;;5000698;28;20034;-68
2021/12/06 02:55:37;;;;;;;11.48;1.33;;;20.80;99.90;;;;;;5009404;28;20038;-67
2021/12/06 02:58:22;;;;;;;8.73;1.45;;;20.80;99.90;;;;;;5002411;28;20037;-66
2021/12/06 03:00:55;;;;;;;8.60;1.42;;;20.80;99.90;;;;;;5021161;28;20097;-62
2021/12/06 03:03:23;;;;;;;8.52;0.93;;;20.80;99.90;;;;;;5007543;28;20085;-63
2021/12/06 03:05:52;;;;;;;8.40;1.13;;;20.80;99.90;;;;;;5012683;28;20021;-63
2021/12/06 03:08:47;;;;;;;7.00;0.95;;;20.90;99.90;;;;;;5018288;28;20033;-63
2021/12/06 03:11:30;;;;;;;6.68;1.25;;;20.90;99.90;;;;;;5024670;28;20030;-63
2021/12/06 03:13:58;;;;;;;5.32;1.05;;;20.90;99.90;;;;;;5011638;28;20092;-63
2021/12/06 03:16:25;;;;;;;9.50;1.27;;;20.80;99.90;;;;;;5011703;28;20034;-62
2021/12/06 03:18:55;;;;;;;10.18;1.92;;;20.80;99.90;;;;;;5010975;28;20034;-61
2021/12/06 03:21:24;;;;;;;7.68;1.33;;;20.70;99.90;;;;;;5000923;28;20026;-62
2021/12/06 03:23:54;;;;;;;8.40;1.30;;;20.80;99.90;;;;;;5008042;28;20034;-62
2021/12/06 03:26:22;;;;;;;8.07;1.27;;;20.70;99.90;;;;;;4994601;28;20042;-62
2021/12/06 03:28:49;;;;;;;10.18;1.10;;;20.70;99.90;;;;;;4994422;28;20062;-62
2021/12/06 03:31:18;;;;;;;7.13;1.15;;;20.70;99.90;;;;;;5003084;28;20038;-66
2021/12/06 03:33:48;;;;;;;8.35;0.98;;;20.70;99.90;;;;;;5018208;28;20078;-66
2021/12/06 03:36:17;;;;;;;9.15;1.52;;;20.70;99.90;;;;;;5019296;28;20034;-66
2021/12/06 03:38:45;;;;;;;6.85;0.93;;;20.60;99.90;;;;;;5018158;28;20022;-65
2021/12/06 03:41:14;;;;;;;10.98;1.35;;;20.60;99.90;;;;;;5014998;28;20053;-66
2021/12/06 03:43:43;;;;;;;7.10;1.38;;;20.60;99.90;;;;;;5015811;28;20030;-66
2021/12/06 03:46:13;;;;;;;5.07;0.95;;;20.60;99.90;;;;;;5030303;28;20057;-66
2021/12/06 03:48:41;;;;;;;5.82;0.90;;;20.50;99.90;;;;;;5012672;28;20026;-66
2021/12/06 03:51:08;;;;;;;6.40;0.80;;;20.50;99.90;;;;;;5010750;28;20049;-67
2021/12/06 03:53:36;;;;;;;7.95;1.05;;;20.40;99.90;;;;;;5031096;28;20025;-66
2021/12/06 03:56:04;;;;;;;7.53;0.88;;;20.40;99.90;;;;;;5016925;28;20045;-66
2021/12/06 03:58:33;;;;;;;5.75;1.08;;;20.40;99.90;;;;;;4996644;28;20054;-68
2021/12/06 04:01:02;;;;;;;5.10;0.63;;;20.30;99.90;;;;;;4997724;28;20033;-68
2021/12/06 04:03:33;;;;;;;7.78;1.17;;;20.30;99.90;;;;;;4998995;28;20585;-68
2021/12/06 04:06:01;;;;;;;10.25;1.77;;;20.30;99.90;;;;;;4996592;28;20022;-68
2021/12/06 04:08:28;;;;;;;3.90;1.13;;;20.30;99.90;;;;;;4995487;28;20403;-68
2021/12/06 04:10:55;;;;;;;8.90;1.05;;;20.30;99.90;;;;;;4999157;28;20061;-68
2021/12/06 04:13:23;;;;;;;6.38;1.40;;;20.30;99.90;;;;;;4997723;28;20031;-68
2021/12/06 04:15:52;;;;;;;6.05;0.77;;;20.30;99.90;;;;;;4994797;28;20035;-68
2021/12/06 04:18:19;;;;;;;4.95;0.93;;;20.20;99.90;;;;;;4992601;28;20026;-68
2021/12/06 04:20:47;;;;;;;9.20;1.20;;;20.20;99.90;;;;;;4997286;28;20107;-68
2021/12/06 04:23:15;;;;;;;8.13;1.25;;;20.20;99.90;;;;;;5003887;28;20046;-67
2021/12/06 04:25:44;;;;;;;7.47;0.90;;;20.30;99.90;;;;;;5014216;28;20033;-68
2021/12/06 04:28:14;;;;;;;6.70;0.80;;;20.30;99.90;;;;;;4986671;28;20023;-68
2021/12/06 04:30:43;;;;;;;5.68;0.65;;;20.40;99.90;;;;;;5017572;28;20034;-67
2021/12/06 04:33:11;;;;;;;9.90;0.93;;;20.50;99.90;;;;;;5018447;28;20042;-67
2021/12/06 04:35:41;;;;;;;11.88;1.48;;;20.50;99.90;;;;;;5014622;28;20057;-67
2021/12/06 04:38:09;;;;;;;7.78;1.10;;;20.50;99.90;;;;;;4999555;28;20174;-67
2021/12/06 04:40:37;;;;;;;8.45;1.10;;;20.60;99.90;;;;;;5005784;28;20121;-67
2021/12/06 04:43:05;;;;;;;10.02;1.45;;;20.60;99.90;;;;;;5012580;28;20069;-67
2021/12/06 04:45:33;;;;;;;8.93;1.08;;;20.60;99.90;;;;;;4994697;28;20030;-67
2021/12/06 04:48:00;;;;;;;9.13;1.38;;;20.60;99.90;;;;;;5003296;28;20038;-67
2021/12/06 04:50:31;;;;;;;4.65;0.55;;;20.60;99.90;;;;;;4994332;28;20018;-67
2021/12/06 04:53:10;;;;;;;6.10;0.90;;;20.50;99.90;;;;;;5015576;28;20019;-68
2021/12/06 04:55:43;;;;;;;12.30;1.70;;;20.60;99.90;;;;;;5010148;28;20031;-67
2021/12/06 04:58:24;;;;;;;10.50;1.13;;;20.70;99.90;;;;;;5014081;28;20018;-69
2021/12/06 05:01:02;;;;;;;12.13;1.38;;;20.70;99.90;;;;;;4996535;28;20019;-68
2021/12/06 05:03:30;;;;;;;7.28;1.17;;;20.70;99.90;;;;;;5001519;28;20038;-68
2021/12/06 05:06:07;;;;;;;6.53;1.02;;;20.80;99.90;;;;;;5022590;28;20274;-68
2021/12/06 05:08:39;;;;;;;6.22;1.17;;;20.80;99.90;;;;;;5002456;28;20030;-68
2021/12/06 05:11:07;;;;;;;7.78;1.63;;;20.90;99.90;;;;;;5012549;28;20025;-69
2021/12/06 05:13:38;;;;;;;9.45;1.20;;;20.80;99.90;;;;;;5012866;28;20011;-68
2021/12/06 05:16:05;;;;;;;6.93;1.08;;;20.80;99.90;;;;;;5015348;28;20034;-67
2021/12/06 05:18:33;;;;;;;6.10;1.10;;;20.80;99.90;;;;;;5004537;28;20030;-68
2021/12/06 05:21:00;;;;;;;4.95;1.20;;;20.70;99.90;;;;;;4997385;28;20081;-68
2021/12/06 05:23:27;;;;;;;6.85;1.67;;;20.60;99.90;;;;;;4998672;28;20037;-68
2021/12/06 05:25:55;;;;;;;7.63;1.17;;;20.50;99.90;;;;;;5022563;28;20086;-69
2021/12/06 05:28:26;;;;;;;7.90;1.38;;;20.50;99.90;;;;;;5004920;28;20057;-68
2021/12/06 05:30:56;;;;;;;8.40;1.00;;;20.50;99.90;;;;;;5000438;28;20030;-68
2021/12/06 05:33:29;;;;;;;11.18;1.10;;;20.50;99.90;;;;;;5022634;28;20034;-68
2021/12/06 05:36:03;;;;;;;7.17;1.00;;;20.50;99.90;;;;;;5013128;28;20010;-68
2021/12/06 05:38:30;;;;;;;6.95;0.85;;;20.50;99.90;;;;;;5015563;28;20038;-68
2021/12/06 05:40:58;;;;;;;11.88;1.88;;;20.50;99.90;;;;;;5015343;28;20023;-68
2021/12/06 05:43:26;;;;;;;6.22;0.90;;;20.50;99.90;;;;;;5009431;28;20029;-68
2021/12/06 05:45:54;;;;;;;7.20;1.42;;;20.50;99.90;;;;;;5001620;28;20023;-69
2021/12/06 05:48:21;;;;;;;10.70;1.92;;;20.50;99.90;;;;;;5024050;28;20091;-68
2021/12/06 05:50:49;;;;;;;5.93;0.88;;;20.50;99.90;;;;;;5008410;28;20061;-68
2021/12/06 05:53:18;;;;;;;6.88;0.95;;;20.40;99.90;;;;;;5024937;28;20073;-68
2021/12/06 05:55:47;;;;;;;8.13;1.30;;;20.40;99.90;;;;;;5009646;28;20538;-68
2021/12/06 05:58:17;;;;;;;10.38;1.10;;;20.40;99.90;;;;;;5009247;28;20507;-68
2021/12/06 06:00:45;;;;;;;7.13;1.55;;;20.40;99.90;;;;;;5011869;28;20026;-68
2021/12/06 06:03:12;;;;;;;6.15;0.85;;;20.30;99.90;;;;;;5006885;28;20392;-68
2021/12/06 06:05:40;;;;;;;7.18;1.13;;;20.20;99.90;;;;;;5013403;28;20035;-68
2021/12/06 06:08:07;;;;;;;8.95;0.73;;;20.20;99.90;;;;;;5013940;28;20010;-69
2021/12/06 06:10:36;;;;;;;9.70;1.02;;;20.10;99.90;;;;;;5017754;28;20038;-68
2021/12/06 06:13:06;;;;;;;5.90;0.93;;;20.10;99.90;;;;;;5014382;28;20029;-69
2021/12/06 06:15:33;;;;;;;8.90;1.20;;;20.20;99.90;;;;;;5017765;28;20051;-68
2021/12/06 06:18:02;;;;;;;7.43;1.10;;;20.20;99.90;;;;;;5015392;28;20101;-68
2021/12/06 06:20:41;;;;;;;9.80;1.00;;;20.20;99.90;;;;;;5016266;28;20037;-68
2021/12/06 06:23:08;;;;;;;9.85;1.05;;;20.20;99.90;;;;;;5015143;28;20037;-67
2021/12/06 06:25:36;;;;;;;11.88;2.05;;;20.10;99.90;;;;;;5015421;28;20058;-66
2021/12/06 06:28:04;;;;;;;7.28;0.98;;;20.10;99.90;;;;;;5014365;28;20014;-66
2021/12/06 06:30:33;;;;;;;6.05;1.25;;;20.10;99.90;;;;;;5020544;28;20033;-67
2021/12/06 06:33:01;;;;;;;9.65;0.80;;;20.10;99.90;;;;;;5019627;28;20030;-67
2021/12/06 06:35:29;;;;;;;8.55;1.45;;;20.10;99.90;;;;;;5013567;28;20081;-68
2021/12/06 06:37:56;;;;;;;7.72;1.00;;;20.10;99.90;;;;;;5016249;28;20022;-67
2021/12/06 06:40:23;;;;;;;5.25;0.75;;;20.20;99.90;;;;;;5015588;28;20010;-67
2021/12/06 06:42:51;;;;;;;10.48;0.70;;;20.20;99.90;;;;;;5032187;28;20106;-67
2021/12/06 06:45:20;;;;;;;6.70;0.93;;;20.20;99.90;;;;;;5018299;28;20070;-67
2021/12/06 06:47:48;;;;;;;7.38;1.40;;;20.20;99.90;;;;;;5019739;28;20018;-68
2021/12/06 06:50:16;;;;;;;7.68;1.88;;;20.20;99.90;;;;;;5020557;28;20073;-67
2021/12/06 06:52:43;;;;;;;9.05;1.45;;;20.20;99.90;;;;;;5018522;28;20018;-68
2021/12/06 06:55:11;;;;;;;6.40;1.00;;;20.20;99.90;;;;;;5017421;28;20033;-68
2021/12/06 06:57:41;;;;;;;9.00;1.02;;;20.20;99.90;;;;;;5018939;28;20033;-68
2021/12/06 07:00:12;;;;;;;6.18;0.68;;;20.10;99.90;;;;;;5018827;28;20023;-68
2021/12/06 07:02:39;;;;;;;10.00;1.77;;;20.10;99.90;;;;;;5017768;28;20049;-68
2021/12/06 07:05:10;;;;;;;7.85;1.35;;;20.10;99.90;;;;;;5016570;28;20023;-67
2021/12/06 07:07:38;;;;;;;7.78;1.23;;;20.10;99.90;;;;;;5013165;28;20034;-68
2021/12/06 07:10:06;;;;;;;9.80;1.98;;;20.10;99.90;;;;;;5014812;28;20034;-67
2021/12/06 07:12:41;;;;;;;10.38;1.55;;;20.10;99.90;;;;;;5017663;28;20038;-68
2021/12/06 07:15:11;;;;;;;7.85;1.58;;;20.10;99.90;;;;;;5011180;28;20046;-67
2021/12/06 07:17:41;;;;;;;9.43;1.20;;;20.10;99.90;;;;;;5008020;28;20030;-68
2021/12/06 07:20:09;;;;;;;6.88;1.17;;;20.00;99.90;;;;;;5026892;28;20481;-67
2021/12/06 07:22:37;;;;;;;13.43;2.00;;;20.10;99.90;;;;;;5017691;28;20019;-67
2021/12/06 07:25:06;;;;;;;6.97;1.23;;;20.10;99.90;;;;;;5016034;28;20029;-67
2021/12/06 07:27:33;;;;;;;10.65;1.77;;;20.10;99.90;;;;;;5016490;28;20027;-67
2021/12/06 07:30:01;;;;;;;10.18;1.50;;;20.10;99.90;;;;;;5018741;28;20014;-68
2021/12/06 07:32:29;;;;;;;10.80;1.33;;;20.20;99.90;;;;;;5014955;28;20019;-68
2021/12/06 07:34:56;;;;;;;5.70;1.33;;;20.20;99.90;;;;;;5017568;28;20019;-67
2021/12/06 07:37:24;;;;;;;7.85;1.20;;;20.20;99.90;;;;;;5019239;28;20034;-68
2021/12/06 07:39:51;;;;;;;6.03;1.63;;;20.20;99.90;;;;;;5023041;28;20010;-68
2021/12/06 07:42:19;;;;;;;7.70;1.25;;;20.20;99.90;;;;;;5019658;28;20026;-67
2021/12/06 07:44:49;;;;;;;6.82;1.27;;;20.00;99.90;;;;;;5017054;28;20071;-67
2021/12/06 07:47:16;;;;;;;9.50;0.93;;;20.00;99.90;;;;;;5018186;28;20113;-67
2021/12/06 07:49:44;;;;;;;11.70;1.30;;;20.00;99.90;;;;;;5017189;28;20031;-67
2021/12/06 07:52:12;;;;;;;8.35;0.68;;;19.90;99.90;;;;;;5017298;28;20027;-67
2021/12/06 07:54:40;;;;;;;6.47;1.20;;;19.90;99.90;;;;;;5030087;28;20014;-67
2021/12/06 07:57:08;;;;;;;12.18;1.30;;;19.80;99.90;;;;;;5016975;28;20026;-67
2021/12/06 07:59:36;;;;;;;10.18;1.48;;;19.80;99.90;;;;;;5018529;28;20086;-67
2021/12/06 08:02:06;;;;;;;11.13;1.73;;;19.80;99.90;;;;;;5017618;28;20060;-67
2021/12/06 08:04:33;;;;;;;8.50;1.40;;;19.80;99.90;;;;;;5015446;28;20021;-67
2021/12/06 08:07:01;;;;;;;5.30;0.93;;;19.70;99.90;;;;;;5014704;28;20010;-67
2021/12/06 08:09:28;;;;;;;8.73;1.40;;;19.70;99.90;;;;;;5015672;28;20038;-67
2021/12/06 08:11:58;;;;;;;8.90;1.55;;;19.70;99.90;;;;;;5015314;28;20010;-67
2021/12/06 08:14:26;;;;;;;10.10;1.48;;;19.70;99.90;;;;;;5015105;28;20073;-67
2021/12/06 08:16:53;;;;;;;12.20;1.13;;;19.70;99.90;;;;;;5016764;28;20041;-67
2021/12/06 08:19:21;;;;;;;7.05;1.00;;;19.60;99.90;;;;;;5015847;28;20033;-67
2021/12/06 08:21:48;;;;;;;6.95;1.17;;;19.60;99.90;;;;;;5023693;28;20017;-66
2021/12/06 08:24:15;;;;;;;6.78;1.40;;;19.60;99.90;;;;;;5005232;28;20039;-67
2021/12/06 08:26:47;;;;;;;6.18;1.00;;;19.60;99.90;;;;;;5011817;28;20021;-67
2021/12/06 08:29:16;;;;;;;7.95;1.30;;;19.60;99.90;;;;;;5012309;28;20382;-67
2021/12/06 08:31:45;;;;;;;8.52;1.50;;;19.60;99.90;;;;;;5012870;28;20010;-67
2021/12/06 08:34:12;;;;;;;6.00;1.10;;;19.60;99.90;;;;;;5008907;28;20022;-67
2021/12/06 08:36:40;;;;;;;7.30;1.00;;;19.60;99.90;;;;;;5005921;28;20023;-67
2021/12/06 08:39:08;;;;;;;6.10;1.23;;;19.50;99.90;;;;;;5003892;28;20639;-68
2021/12/06 08:41:35;;;;;;;5.65;1.50;;;19.50;99.90;;;;;;5003187;28;20034;-67
2021/12/06 08:44:04;;;;;;;10.25;1.67;;;19.50;99.90;;;;;;5007501;28;20014;-68
2021/12/06 08:46:38;;;;;;;11.23;2.10;;;19.50;99.90;;;;;;5012108;28;20035;-68
2021/12/06 08:49:05;;;;;;;;;;;19.40;99.90;;;;;;5014449;28;20063;-68
2021/12/06 08:51:40;;;;;;;8.40;1.13;;;19.40;99.90;;;;;;5017353;28;19898;-67
2021/12/06 08:54:09;;;;;;;7.53;1.25;;;19.40;99.90;;;;;;5009806;28;20037;-67
2021/12/06 08:56:37;;;;;;;8.82;1.30;;;19.30;99.90;;;;;;5018136;28;20045;-67
2021/12/06 08:59:06;;;;;;;7.18;1.02;;;19.30;99.90;;;;;;5013062;28;20026;-67
2021/12/06 09:01:35;;;;;;;6.78;1.67;;;19.30;99.90;;;;;;5016735;28;20011;-67
2021/12/06 09:04:08;;;;;;;8.50;1.27;;;19.30;99.90;;;;;;5014129;28;20038;-66
2021/12/06 09:06:36;;;;;;;8.77;1.77;;;19.20;99.90;;;;;;5015154;28;20007;-67
2021/12/06 09:09:08;;;;;;;8.20;1.38;;;19.20;99.90;;;;;;5019099;28;20017;-67
2021/12/06 09:11:40;;;;;;;9.98;1.55;;;19.20;99.90;;;;;;5016240;28;20023;-66
2021/12/06 09:14:08;;;;;;;6.65;1.35;;;19.20;99.90;;;;;;5014576;28;20058;-67
2021/12/06 09:16:38;;;;;;;9.13;1.70;;;19.20;99.90;;;;;;5016462;28;20026;-67
2021/12/06 09:19:10;;;;;;;8.50;1.77;;;19.10;99.90;;;;;;5015080;28;20006;-67
2021/12/06 09:21:39;;;;;;;4.65;0.80;;;19.10;99.90;;;;;;5017202;28;20022;-67
2021/12/06 09:24:18;;;;;;;9.82;1.27;;;19.10;99.90;;;;;;5031309;28;20212;-67
2021/12/06 09:26:46;;;;;;;11.27;1.42;;;19.10;99.90;;;;;;5015441;28;20026;-67
2021/12/06 09:29:14;;;;;;;7.63;1.48;;;19.10;99.90;;;;;;5009058;28;20095;-67
2021/12/06 09:31:42;;;;;;;7.90;1.02;;;19.10;99.90;;;;;;5016146;28;20037;-67
2021/12/06 09:34:10;;;;;;;7.00;1.13;;;19.10;99.90;;;;;;5014863;28;20030;-67
2021/12/06 09:36:38;;;;;;;9.48;1.60;;;19.10;99.90;;;;;;5032302;28;20025;-67
2021/12/06 09:39:07;;;;;;;12.65;1.40;;;19.10;99.90;;;;;;5013151;28;20018;-67
2021/12/06 09:41:34;;;;;;;10.82;2.20;;;19.10;99.90;;;;;;5016044;28;20017;-67
2021/12/06 09:44:05;;;;;;;8.70;1.65;;;19.10;99.90;;;;;;5019943;28;20030;-67
2021/12/06 09:46:36;;;;;;;12.68;1.55;;;19.10;99.90;;;;;;5021496;28;20082;-67
2021/12/06 09:49:15;;;;;;;7.25;1.05;;;19.00;99.90;;;;;;5021746;28;20014;-67
2021/12/06 09:51:50;;;;;;;9.55;1.10;;;19.00;99.90;;;;;;5020802;28;20038;-67
2021/12/06 09:54:21;;;;;;;4.95;1.40;;;19.00;99.90;;;;;;5014457;28;20045;-68
2021/12/06 09:56:50;;;;;;;8.13;0.90;;;19.00;99.90;;;;;;5021306;28;20078;-67
2021/12/06 09:59:21;;;;;;;13.52;1.15;;;19.00;99.90;;;;;;5020826;28;20022;-67
2021/12/06 10:02:04;;;;;;;8.05;1.27;;;19.00;99.90;;;;;;5036869;28;20021;-67
2021/12/06 10:04:34;;;;;;;10.77;1.57;;;19.00;99.90;;;;;;5037323;28;20069;-67
2021/12/06 10:07:02;;;;;;;8.75;1.80;;;18.90;99.90;;;;;;5021234;28;20019;-67
2021/12/06 10:09:30;;;;;;;10.48;1.63;;;18.90;99.90;;;;;;5036911;28;20089;-67
2021/12/06 10:11:59;;;;;;;8.25;1.45;;;18.90;99.90;;;;;;5021474;28;20018;-67
2021/12/06 10:14:27;;;;;;;9.45;1.45;;;18.90;99.90;;;;;;5020543;28;20046;-67
2021/12/06 10:16:54;;;;;;;10.65;2.30;;;18.80;99.90;;;;;;5034934;28;20020;-67
2021/12/06 10:19:23;;;;;;;6.68;1.23;;;18.90;99.90;;;;;;5021411;28;20034;-67
2021/12/06 10:21:51;;;;;;;7.05;1.10;;;18.90;99.90;;;;;;5021297;28;20057;-67
2021/12/06 10:24:23;;;;;;;9.38;1.45;;;18.90;99.90;;;;;;5035952;28;20050;-67
2021/12/06 10:27:01;;;;;;;6.57;1.05;;;18.90;99.90;;;;;;5020933;28;20034;-67
2021/12/06 10:29:34;;;;;;;5.65;1.27;;;18.80;99.90;;;;;;5020948;28;20026;-67
2021/12/06 10:32:01;;;;;;;5.72;1.25;;;18.80;99.90;;;;;;5014712;28;20014;-67
2021/12/06 10:34:29;;;;;;;7.95;1.40;;;18.90;99.90;;;;;;5021585;28;20030;-67
2021/12/06 10:36:57;;;;;;;11.10;1.20;;;18.80;99.90;;;;;;5020627;28;20019;-67
2021/12/06 10:39:24;;;;;;;6.07;1.17;;;18.80;99.90;;;;;;5021056;28;20038;-68
2021/12/06 10:41:53;;;;;;;7.03;0.93;;;18.80;99.90;;;;;;5020873;28;20023;-67
2021/12/06 10:44:21;;;;;;;11.77;1.60;;;18.80;99.90;;;;;;5020285;28;20038;-67
2021/12/06 10:46:52;;;;;;;9.35;1.30;;;18.80;99.90;;;;;;5018399;28;20026;-67
2021/12/06 10:49:23;;;;;;;7.80;1.27;;;18.70;99.90;;;;;;5020258;28;20022;-66
2021/12/06 10:51:51;;;;;;;10.15;1.50;;;18.70;99.90;;;;;;5034588;28;20117;-66
2021/12/06 10:54:35;;;;;;;7.95;1.42;;;18.70;99.90;;;;;;5018921;28;20030;-66
2021/12/06 10:57:04;;;;;;;;;;;18.70;99.90;;;;;;5019524;28;20014;-66
2021/12/06 10:59:37;;;;;;;5.88;1.77;;;18.70;99.90;;;;;;5018702;28;19909;-66
2021/12/06 11:02:13;;;;;;;6.23;1.13;;;18.70;99.90;;;;;;5019280;28;20022;-67
2021/12/06 11:04:42;;;;;;;6.43;1.30;;;18.70;99.90;;;;;;5018881;28;20265;-67
2021/12/06 11:07:10;;;;;;;10.38;1.45;;;18.70;99.90;;;;;;5017265;28;20034;-67
2021/12/06 11:09:42;;;;;;;10.63;1.55;;;18.70;99.90;;;;;;5034266;28;20007;-67
2021/12/06 11:12:17;;;;;;;6.57;1.05;;;18.70;99.90;;;;;;5017989;28;20017;-67
2021/12/06 11:14:48;;;;;;;12.27;1.48;;;18.70;99.90;;;;;;5031756;28;20066;-67
2021/12/06 11:17:19;;;;;;;10.48;1.42;;;18.70;99.90;;;;;;5015955;28;20007;-67
2021/12/06 11:19:49;;;;;;;7.07;1.23;;;18.70;99.90;;;;;;5016145;28;20372;-67
2021/12/06 11:22:23;;;;;;;7.72;1.00;;;18.60;99.90;;;;;;5018874;28;20045;-67
2021/12/06 11:24:51;;;;;;;7.57;1.23;;;18.60;99.90;;;;;;5017512;28;20045;-66
2021/12/06 11:27:29;;;;;;;9.90;1.30;;;18.60;99.90;;;;;;5004363;28;20018;-67
2021/12/06 11:30:06;;;;;;;6.60;0.80;;;18.60;99.90;;;;;;5034505;28;20057;-67
2021/12/06 11:32:37;;;;;;;7.53;1.02;;;18.60;99.90;;;;;;5018202;28;20038;-67
2021/12/06 11:35:06;;;;;;;14.57;1.63;;;18.70;99.90;;;;;;5005772;28;20023;-67
2021/12/06 11:37:46;;;;;;;6.65;2.40;;;18.60;99.90;;;;;;5018159;28;20030;-67
2021/12/06 11:40:28;;;;;;;12.98;2.15;;;18.70;99.90;;;;;;5015421;28;20034;-67
2021/12/06 11:43:04;;;;;;;9.52;1.60;;;18.70;99.90;;;;;;5017868;28;20033;-67
2021/12/06 11:45:52;;;;;;;8.63;1.50;;;18.70;99.90;;;;;;5018436;28;20018;-67
2021/12/06 11:48:32;;;;;;;11.70;1.20;;;18.70;99.90;;;;;;5033329;28;20045;-67
2021/12/06 11:51:18;;;;;;;10.00;1.15;;;18.70;99.90;;;;;;5018297;28;20061;-67
2021/12/06 11:53:58;;;;;;;13.55;1.23;;;18.70;99.90;;;;;;5015760;28;20030;-67
2021/12/06 11:56:31;;;;;;;10.50;1.77;;;18.70;99.90;;;;;;5017120;28;20094;-67
2021/12/06 11:59:03;;;;;;;9.10;2.30;;;18.70;99.90;;;;;;5034270;28;20030;-67
2021/12/06 12:01:40;;;;;;;6.97;1.40;;;18.70;99.90;;;;;;5018850;28;20049;-67
2021/12/06 12:04:21;;;;;;;6.47;1.73;;;18.80;99.90;;;;;;5011752;28;20029;-67
2021/12/06 12:07:00;;;;;;;11.80;2.05;;;18.80;99.90;;;;;;5017672;28;20074;-67
2021/12/06 12:09:33;;;;;;;10.25;1.08;;;18.70;99.90;;;;;;5018299;28;20138;-67
2021/12/06 12:12:23;;;;;;;11.18;1.48;;;18.70;99.90;;;;;;5033790;28;20106;-66
2021/12/06 12:14:57;;;;;;;12.45;2.10;;;18.70;99.90;;;;;;5018014;28;20042;-66
2021/12/06 12:17:28;;;;;;;14.82;1.80;;;18.70;99.90;;;;;;5017401;28;20033;-67
2021/12/06 12:19:59;;;;;;;5.57;1.13;;;18.70;99.90;;;;;;5016613;28;20023;-67
2021/12/06 12:22:27;;;;;;;6.90;1.33;;;18.70;99.90;;;;;;5016313;28;20061;-66
2021/12/06 12:24:59;;;;;;;8.02;1.67;;;18.70;99.90;;;;;;5016946;28;20002;-66
2021/12/06 12:27:41;;;;;;;7.13;1.08;;;18.60;99.90;;;;;;5018409;28;20034;-66
2021/12/06 12:30:10;;;;;;;9.75;1.77;;;18.60;99.90;;;;;;5017616;28;20041;-66
2021/12/06 12:32:37;;;;;;;8.57;1.98;;;18.60;99.90;;;;;;5017134;28;20034;-67
2021/12/06 12:35:08;;;;;;;11.82;1.70;;;18.60;99.90;;;;;;5016056;28;20023;-66
2021/12/06 12:37:38;;;;;;;11.25;1.73;;;18.60;99.90;;;;;;5016210;28;20010;-66
2021/12/06 12:40:12;;;;;;;13.20;1.88;;;18.60;99.90;;;;;;5015620;28;20086;-66
2021/12/06 12:42:55;;;;;;;6.53;1.38;;;18.60;99.90;;;;;;5031325;28;20091;-67
2021/12/06 12:45:22;;;;;;;8.07;1.77;;;18.60;99.90;;;;;;5013674;28;20015;-67
2021/12/06 12:47:56;;;;;;;8.43;1.15;;;18.60;99.90;;;;;;5013061;28;20006;-66
2021/12/06 12:50:29;;;;;;;8.93;1.20;;;18.60;99.90;;;;;;5028331;28;20086;-67
2021/12/06 12:53:06;;;;;;;10.38;1.73;;;18.70;99.90;;;;;;5011485;28;20562;-67
2021/12/06 12:55:48;;;;;;;9.32;1.15;;;18.70;99.90;;;;;;5009948;28;20030;-67
2021/12/06 12:58:19;;;;;;;9.93;1.17;;;18.80;99.90;;;;;;5012514;28;20023;-67
2021/12/06 13:00:59;;;;;;;10.35;1.50;;;18.80;99.90;;;;;;5011827;28;20015;-67
2021/12/06 13:03:43;;;;;;;8.60;1.63;;;18.80;99.90;;;;;;5011121;28;20062;-67
2021/12/06 13:06:22;;;;;;;10.77;1.75;;;18.70;99.90;;;;;;5010990;28;20026;-66
2021/12/06 13:08:56;;;;;;;8.48;1.42;;;18.70;99.90;;;;;;5009573;28;20090;-67
2021/12/06 13:11:26;;;;;;;10.82;1.67;;;18.70;99.90;;;;;;5012294;28;20019;-67
2021/12/06 13:13:54;;;;;;;10.20;1.75;;;18.70;99.90;;;;;;5008160;28;20082;-66